Time;durP1;ratioP1;P1;durP2;ratioP2;P2;SDS_P1;SDS_P2;PMS_P1;PMS_P2;Temp;Humidity;BMP_temperature;BMP_pressure;BME280_temperature;BME280_humidity;BME280_pressure;Samples;Min_cycle;Max_cycle;Signal;HPM_P1;HPM_P2
2021/04/11 00:00:58;;;;;;;;;;;19.30;52.80;;;;;;4053612;29;19951;-46
2021/04/11 00:03:00;;;;;;;;;;;19.30;52.70;;;;;;4055583;29;20523;-50
2021/04/11 00:05:03;;;;;;;;;;;19.30;52.70;;;;;;4055046;29;20643;-46
2021/04/11 00:07:04;;;;;;;;;;;19.30;52.60;;;;;;4054181;29;20010;-50
2021/04/11 00:09:06;;;;;;;;;;;19.30;52.50;;;;;;4053063;29;20399;-50
2021/04/11 00:11:08;;;;;;;;;;;19.30;52.50;;;;;;4055977;29;19945;-49
2021/04/11 00:13:11;;;;;;;;;;;19.30;52.60;;;;;;4055622;28;19918;-47
2021/04/11 00:15:13;;;;;;;;;;;19.20;52.30;;;;;;4055957;29;19927;-48
2021/04/11 00:17:15;;;;;;;;;;;19.20;52.10;;;;;;4056384;29;19962;-53
2021/04/11 00:19:16;;;;;;;;;;;19.30;52.40;;;;;;4053426;29;19926;-49
2021/04/11 00:21:18;;;;;;;;;;;19.20;51.90;;;;;;4047256;29;20001;-47
2021/04/11 00:23:21;;;;;;;;;;;19.20;51.80;;;;;;4051076;29;19908;-49
2021/04/11 00:25:24;;;;;;;;;;;19.20;51.90;;;;;;4050003;29;19922;-47
2021/04/11 00:27:26;;;;;;;;;;;19.20;52.00;;;;;;4051672;29;20066;-49
2021/04/11 00:29:27;;;;;;;;;;;19.30;51.90;;;;;;4052997;29;19918;-49
2021/04/11 00:31:29;;;;;;;;;;;19.20;51.40;;;;;;4050393;28;19938;-48
2021/04/11 00:33:38;;;;;;;;;;;19.20;51.90;;;;;;4049731;29;19923;-47
2021/04/11 00:35:41;;;;;;;;;;;19.20;51.70;;;;;;4049385;29;19959;-47
2021/04/11 00:37:43;;;;;;;;;;;19.20;51.50;;;;;;4051262;29;19926;-49
2021/04/11 00:39:44;;;;;;;;;;;19.20;51.60;;;;;;4047614;29;19950;-47
2021/04/11 00:41:47;;;;;;;;;;;19.20;51.60;;;;;;4052894;29;19915;-46
2021/04/11 00:43:49;;;;;;;;;;;19.20;51.40;;;;;;4047761;29;20125;-53
2021/04/11 00:46:03;;;;;;;;;;;19.20;51.60;;;;;;4048413;29;19954;-49
2021/04/11 00:48:06;;;;;;;;;;;19.20;51.60;;;;;;4053430;29;20479;-46
2021/04/11 00:50:10;;;;;;;;;;;19.20;51.10;;;;;;4047049;29;19923;-47
2021/04/11 00:52:13;;;;;;;;;;;19.20;51.30;;;;;;4045386;29;19923;-44
2021/04/11 00:54:15;;;;;;;;;;;19.20;50.80;;;;;;4048862;29;20033;-47
2021/04/11 00:56:17;;;;;;;;;;;19.20;50.20;;;;;;4050046;29;20452;-45
2021/04/11 00:58:21;;;;;;;;;;;19.20;50.40;;;;;;4044033;29;19980;-49
2021/04/11 01:00:25;;;;;;;;;;;19.20;50.40;;;;;;4047232;29;20049;-46
2021/04/11 01:02:26;;;;;;;;;;;19.20;50.50;;;;;;4050324;29;19934;-47
2021/04/11 01:04:28;;;;;;;;;;;19.20;50.60;;;;;;4047190;29;20002;-49
2021/04/11 01:06:32;;;;;;;;;;;19.20;50.60;;;;;;4048546;29;20735;-45
2021/04/11 01:08:34;;;;;;;;;;;19.30;50.80;;;;;;4049716;29;19919;-47
2021/04/11 01:10:37;;;;;;;;;;;19.30;50.80;;;;;;4047807;29;19927;-49
2021/04/11 01:12:39;;;;;;;;;;;19.30;51.00;;;;;;4047695;29;19918;-49
2021/04/11 01:14:41;;;;;;;;;;;19.30;51.10;;;;;;4049583;29;19938;-47
2021/04/11 01:16:43;;;;;;;;;;;19.30;51.20;;;;;;4048755;29;20404;-48
2021/04/11 01:18:46;;;;;;;;;;;19.30;51.30;;;;;;4048699;28;20022;-48
2021/04/11 01:20:48;;;;;;;;;;;19.30;51.30;;;;;;4044670;29;19915;-48
2021/04/11 01:22:58;;;;;;;;;;;19.40;51.30;;;;;;4047936;29;19970;-46
2021/04/11 01:25:03;;;;;;;;;;;19.40;51.30;;;;;;4045922;29;20415;-46
2021/04/11 01:27:09;;;;;;;;;;;19.40;51.40;;;;;;4047225;28;19986;-46
2021/04/11 01:29:12;;;;;;;;;;;19.40;51.30;;;;;;4046467;29;20232;-45
2021/04/11 01:31:14;;;;;;;;;;;19.40;51.40;;;;;;4053073;29;19946;-50
2021/04/11 01:33:17;;;;;;;;;;;19.40;51.40;;;;;;4042454;29;20414;-46
2021/04/11 01:35:19;;;;;;;;;;;19.40;51.60;;;;;;4051678;29;20275;-47
2021/04/11 01:37:21;;;;;;;;;;;19.40;51.40;;;;;;4045982;29;19973;-50
2021/04/11 01:39:27;;;;;;;;;;;19.40;51.20;;;;;;4046701;28;19995;-46
2021/04/11 01:41:34;;;;;;;;;;;19.40;51.10;;;;;;4051712;29;20309;-51
2021/04/11 01:43:37;;;;;;;;;;;19.40;51.00;;;;;;4047455;29;20064;-51
2021/04/11 01:45:41;;;;;;;;;;;19.30;51.10;;;;;;4050366;28;19923;-53
2021/04/11 01:47:42;;;;;;;;;;;19.30;51.40;;;;;;4050262;29;19918;-51
2021/04/11 01:49:45;;;;;;;;;;;19.40;51.50;;;;;;4046443;29;20459;-48
2021/04/11 01:52:06;;;;;;;;;;;19.40;51.70;;;;;;4045801;29;19930;-46
2021/04/11 01:54:12;;;;;;;;;;;19.40;51.70;;;;;;4045093;29;19919;-48
2021/04/11 01:56:14;;;;;;;;;;;19.40;51.80;;;;;;4046743;29;19946;-48
2021/04/11 01:58:16;;;;;;;;;;;19.40;51.70;;;;;;4051847;29;19951;-47
2021/04/11 02:00:21;;;;;;;;;;;19.40;51.70;;;;;;4046938;29;20013;-47
2021/04/11 02:02:22;;;;;;;;;;;19.40;51.60;;;;;;4046576;29;20683;-49
2021/04/11 02:04:24;;;;;;;;;;;19.40;51.70;;;;;;4044779;29;20126;-47
2021/04/11 02:06:26;;;;;;;;;;;19.40;51.60;;;;;;4046892;28;20356;-47
2021/04/11 02:08:27;;;;;;;;;;;19.40;51.70;;;;;;4051177;29;19930;-55
2021/04/11 02:10:30;;;;;;;;;;;19.50;52.10;;;;;;4051452;29;20411;-49
2021/04/11 02:12:32;;;;;;;;;;;19.50;52.10;;;;;;4044786;29;20407;-48
2021/04/11 02:14:36;;;;;;;;;;;19.50;52.00;;;;;;4051511;29;20486;-49
2021/04/11 02:16:38;;;;;;;;;;;19.50;52.00;;;;;;4061653;29;19922;-49
2021/04/11 02:18:39;;;;;;;;;;;19.50;51.70;;;;;;4049175;29;20329;-50
2021/04/11 02:20:42;;;;;;;;;;;19.50;51.70;;;;;;4048002;29;19922;-50
2021/04/11 02:22:44;;;;;;;;;;;19.50;51.70;;;;;;4046251;29;20001;-50
2021/04/11 02:24:46;;;;;;;;;;;19.50;51.60;;;;;;4045109;29;20104;-50
2021/04/11 02:26:48;;;;;;;;;;;19.50;51.60;;;;;;4049491;29;20399;-52
2021/04/11 02:28:49;;;;;;;;;;;19.50;52.20;;;;;;4050517;28;19935;-49
2021/04/11 02:30:54;;;;;;;;;;;19.60;51.60;;;;;;4053906;29;19927;-53
2021/04/11 02:32:56;;;;;;;;;;;19.60;51.50;;;;;;4054612;29;19911;-52
2021/04/11 02:35:01;;;;;;;;;;;19.50;51.50;;;;;;4056684;29;19923;-49
2021/04/11 02:37:04;;;;;;;;;;;19.50;51.50;;;;;;4053252;28;19911;-54
2021/04/11 02:39:08;;;;;;;;;;;19.60;51.50;;;;;;4053855;29;19915;-50
2021/04/11 02:41:10;;;;;;;;;;;19.50;51.50;;;;;;4053217;29;19915;-52
2021/04/11 02:43:12;;;;;;;;;;;19.50;51.70;;;;;;4057187;28;20331;-47
2021/04/11 02:45:17;;;;;;;;;;;19.60;51.90;;;;;;4052927;29;20042;-49
2021/04/11 02:47:18;;;;;;;;;;;19.60;51.90;;;;;;4056664;29;20380;-49
2021/04/11 02:49:21;;;;;;;;;;;19.60;51.90;;;;;;4055790;29;19920;-50
2021/04/11 02:51:24;;;;;;;;;;;19.60;52.00;;;;;;4058288;29;19931;-46
2021/04/11 02:53:27;;;;;;;;;;;19.60;51.90;;;;;;4054206;29;19967;-47
2021/04/11 02:55:31;;;;;;;;;;;19.60;51.60;;;;;;4056490;29;20045;-47
2021/04/11 02:57:32;;;;;;;;;;;19.60;51.40;;;;;;4051112;29;19923;-50
2021/04/11 02:59:34;;;;;;;;;;;19.60;51.10;;;;;;4058835;29;19915;-48
2021/04/11 03:01:40;;;;;;;;;;;19.60;51.10;;;;;;4056993;29;19919;-50
2021/04/11 03:03:41;;;;;;;;;;;19.60;51.10;;;;;;4056974;29;19923;-47
2021/04/11 03:05:43;;;;;;;;;;;19.60;51.10;;;;;;4056136;29;19952;-48
2021/04/11 03:07:49;;;;;;;;;;;19.60;50.70;;;;;;4055299;29;20324;-46
2021/04/11 03:09:56;;;;;;;;;;;19.60;50.60;;;;;;4052556;29;19946;-47
2021/04/11 03:11:58;;;;;;;;;;;19.60;50.40;;;;;;4053282;29;19930;-48
2021/04/11 03:14:00;;;;;;;;;;;19.60;50.30;;;;;;4052790;29;19929;-46
2021/04/11 03:16:01;;;;;;;;;;;19.60;50.10;;;;;;4052612;29;19915;-52
2021/04/11 03:18:03;;;;;;;;;;;19.60;50.30;;;;;;4051224;28;19911;-50
2021/04/11 03:20:07;;;;;;;;;;;19.60;50.30;;;;;;4059741;29;19914;-49
2021/04/11 03:22:08;;;;;;;;;;;19.70;50.40;;;;;;4051556;29;19915;-47
2021/04/11 03:24:10;;;;;;;;;;;19.70;50.40;;;;;;4053426;29;20041;-47
2021/04/11 03:26:20;;;;;;;;;;;19.80;50.50;;;;;;4062154;29;20291;-49
2021/04/11 03:28:24;;;;;;;;;;;19.80;50.50;;;;;;4054414;29;20600;-51
2021/04/11 03:30:28;;;;;;;;;;;19.80;50.50;;;;;;4055473;29;19927;-52
2021/04/11 03:32:32;;;;;;;;;;;19.90;50.50;;;;;;4052491;29;20333;-48
2021/04/11 03:34:35;;;;;;;;;;;19.90;50.80;;;;;;4054517;29;20034;-48
2021/04/11 03:36:37;;;;;;;;;;;20.00;50.90;;;;;;4050759;29;20354;-56
2021/04/11 03:38:39;;;;;;;;;;;20.00;50.80;;;;;;4059470;29;19926;-51
2021/04/11 03:40:41;;;;;;;;;;;20.00;50.80;;;;;;4055585;28;19981;-53
2021/04/11 03:42:45;;;;;;;;;;;20.10;50.70;;;;;;4056831;29;20371;-51
2021/04/11 03:44:47;;;;;;;;;;;20.20;50.70;;;;;;4056669;29;20313;-53
2021/04/11 03:46:55;;;;;;;;;;;20.20;50.70;;;;;;4055706;28;19934;-52
2021/04/11 03:49:12;;;;;;;;;;;20.30;50.60;;;;;;4055455;29;19930;-55
2021/04/11 03:51:25;;;;;;;;;;;20.30;50.50;;;;;;4055172;29;20329;-53
2021/04/11 03:53:45;;;;;;;;;;;20.30;50.50;;;;;;4052077;29;19915;-51
2021/04/11 03:55:48;;;;;;;;;;;20.40;50.50;;;;;;4053706;29;20479;-47
2021/04/11 03:57:52;;;;;;;;;;;20.50;50.40;;;;;;4056349;29;20432;-49
2021/04/11 03:59:58;;;;;;;;;;;20.60;50.50;;;;;;4054808;28;19922;-52
2021/04/11 04:02:00;;;;;;;;;;;20.60;50.30;;;;;;4054400;29;19911;-49
2021/04/11 04:04:07;;;;;;;;;;;20.60;50.10;;;;;;4055492;29;20381;-52
2021/04/11 04:06:20;;;;;;;;;;;20.70;50.00;;;;;;4055730;29;19922;-47
2021/04/11 04:08:21;;;;;;;;;;;20.80;50.00;;;;;;4053638;29;19997;-51
2021/04/11 04:10:28;;;;;;;;;;;20.80;49.80;;;;;;4042639;29;19934;-53
2021/04/11 04:12:32;;;;;;;;;;;20.90;49.70;;;;;;4046142;29;20272;-52
2021/04/11 04:14:52;;;;;;;;;;;20.90;50.30;;;;;;4050352;29;20002;-47
2021/04/11 04:16:56;;;;;;;;;;;20.90;49.50;;;;;;4053177;29;20041;-52
2021/04/11 04:18:58;;;;;;;;;;;21.00;49.40;;;;;;4049337;29;19983;-50
2021/04/11 04:21:18;;;;;;;;;;;21.10;49.10;;;;;;4049716;29;20037;-55
2021/04/11 04:23:22;;;;;;;;;;;21.10;48.90;;;;;;4043987;29;19925;-52
2021/04/11 04:25:46;;;;;;;;;;;21.20;48.80;;;;;;4050499;29;20364;-53
2021/04/11 04:28:06;;;;;;;;;;;21.20;48.60;;;;;;4051239;28;20377;-53
2021/04/11 04:30:27;;;;;;;;;;;21.30;48.60;;;;;;4048875;29;19970;-49
2021/04/11 04:32:33;;;;;;;;;;;21.40;48.50;;;;;;4049070;29;19915;-49
2021/04/11 04:34:47;;;;;;;;;;;21.40;48.50;;;;;;4044585;29;19927;-49
2021/04/11 04:36:57;;;;;;;;;;;21.40;48.30;;;;;;4047857;28;19923;-49
2021/04/11 04:39:05;;;;;;;;;;;21.50;48.10;;;;;;4048575;29;19915;-48
2021/04/11 04:41:09;;;;;;;;;;;21.60;48.10;;;;;;4052291;29;20329;-53
2021/04/11 04:43:28;;;;;;;;;;;21.70;47.80;;;;;;4052413;29;19923;-51
2021/04/11 04:45:35;;;;;;;;;;;21.80;47.80;;;;;;4046888;28;19915;-48
2021/04/11 04:47:42;;;;;;;;;;;21.90;48.20;;;;;;4051371;29;20204;-48
2021/04/11 04:49:48;;;;;;;;;;;21.90;47.30;;;;;;4047426;29;19919;-45
2021/04/11 04:51:59;;;;;;;;;;;21.90;46.60;;;;;;4048811;28;20436;-45
2021/04/11 04:54:19;;;;;;;;;;;22.00;46.30;;;;;;4044005;29;20901;-46
2021/04/11 04:56:22;;;;;;;;;;;22.10;46.40;;;;;;4052306;29;20251;-46
2021/04/11 04:58:27;;;;;;;;;;;22.10;46.60;;;;;;4049575;29;20364;-50
2021/04/11 05:00:34;;;;;;;;;;;22.20;46.60;;;;;;4040891;29;20472;-45
2021/04/11 05:02:43;;;;;;;;;;;22.20;46.90;;;;;;4046719;29;20227;-46
2021/04/11 05:04:49;;;;;;;;;;;22.30;46.50;;;;;;4050257;29;19930;-46
2021/04/11 05:06:56;;;;;;;;;;;22.40;46.50;;;;;;4045215;29;19920;-46
2021/04/11 05:09:02;;;;;;;;;;;22.40;46.40;;;;;;4045007;29;20340;-48
2021/04/11 05:11:29;;;;;;;;;;;22.50;46.80;;;;;;4046822;29;19923;-47
2021/04/11 05:13:32;;;;;;;;;;;22.50;47.00;;;;;;4047388;29;19926;-45
2021/04/11 05:15:37;;;;;;;;;;;22.50;47.00;;;;;;4045336;28;19919;-51
2021/04/11 05:17:41;;;;;;;;;;;22.50;46.90;;;;;;4049004;29;19922;-51
2021/04/11 05:19:44;;;;;;;;;;;22.50;47.00;;;;;;4048463;29;19923;-49
2021/04/11 05:21:48;;;;;;;;;;;22.50;47.00;;;;;;4046438;29;20048;-50
2021/04/11 05:23:52;;;;;;;;;;;22.50;46.80;;;;;;4049441;29;19918;-55
2021/04/11 05:26:07;;;;;;;;;;;22.60;46.90;;;;;;4050376;29;19915;-51
2021/04/11 05:28:11;;;;;;;;;;;22.50;46.80;;;;;;4051457;29;19925;-50
2021/04/11 05:30:31;;;;;;;;;;;22.50;46.90;;;;;;4044606;29;19934;-50
2021/04/11 05:32:33;;;;;;;;;;;22.50;47.00;;;;;;4049423;29;19915;-50
2021/04/11 05:34:34;;;;;;;;;;;22.50;47.10;;;;;;4047781;29;20374;-48
2021/04/11 05:36:41;;;;;;;;;;;22.50;47.20;;;;;;4048773;29;19922;-46
2021/04/11 05:39:01;;;;;;;;;;;22.50;47.40;;;;;;4049131;29;19923;-46
2021/04/11 05:41:07;;;;;;;;;;;22.60;47.30;;;;;;4050604;29;20010;-46
2021/04/11 05:43:15;;;;;;;;;;;22.60;47.20;;;;;;4043128;29;19919;-49
2021/04/11 05:45:16;;;;;;;;;;;22.60;47.20;;;;;;4049415;28;19919;-45
2021/04/11 05:47:18;;;;;;;;;;;22.60;47.20;;;;;;4047406;29;19934;-46
2021/04/11 05:49:23;;;;;;;;;;;22.60;47.10;;;;;;4043491;29;19922;-50
2021/04/11 05:51:28;;;;;;;;;;;22.60;47.10;;;;;;4046722;29;19923;-50
2021/04/11 05:53:38;;;;;;;;;;;22.60;47.10;;;;;;4049686;29;20455;-46
2021/04/11 05:55:43;;;;;;;;;;;22.60;46.90;;;;;;4045888;28;20075;-51
2021/04/11 05:57:47;;;;;;;;;;;22.70;47.10;;;;;;4048292;29;19929;-48
2021/04/11 06:00:00;;;;;;;;;;;22.70;47.10;;;;;;4050827;29;20334;-51
2021/04/11 06:02:03;;;;;;;;;;;22.70;47.00;;;;;;4043414;29;19919;-45
2021/04/11 06:04:08;;;;;;;;;;;22.70;47.00;;;;;;4047278;28;20691;-50
2021/04/11 06:06:22;;;;;;;;;;;22.70;46.70;;;;;;4045312;29;19911;-46
2021/04/11 06:08:29;;;;;;;;;;;22.70;46.70;;;;;;4046652;29;20019;-51
2021/04/11 06:10:35;;;;;;;;;;;22.70;46.80;;;;;;4043719;28;19927;-50
2021/04/11 06:12:56;;;;;;;;;;;22.70;46.80;;;;;;4048260;28;20057;-49
2021/04/11 06:15:01;;;;;;;;;;;22.80;46.80;;;;;;4043639;29;20303;-46
2021/04/11 06:17:09;;;;;;;;;;;22.80;46.80;;;;;;4052110;29;19950;-50
2021/04/11 06:19:11;;;;;;;;;;;22.80;46.70;;;;;;4046612;29;20292;-49
2021/04/11 06:21:22;;;;;;;;;;;22.70;46.70;;;;;;4044681;29;19923;-47
2021/04/11 06:23:32;;;;;;;;;;;22.80;46.80;;;;;;4051961;29;20239;-52
2021/04/11 06:25:52;;;;;;;;;;;22.70;46.80;;;;;;4051337;29;20360;-49
2021/04/11 06:28:03;;;;;;;;;;;22.70;46.90;;;;;;4048843;29;19923;-51
2021/04/11 06:30:16;;;;;;;;;;;22.70;46.90;;;;;;4044909;29;19919;-48
2021/04/11 06:32:18;;;;;;;;;;;22.70;46.90;;;;;;4053687;29;20007;-46
2021/04/11 06:34:21;;;;;;;;;;;22.70;47.00;;;;;;4049229;29;19930;-53
2021/04/11 06:36:29;;;;;;;;;;;22.70;47.00;;;;;;4050719;29;19912;-53
2021/04/11 06:38:35;;;;;;;;;;;22.70;47.00;;;;;;4050862;29;19915;-52
2021/04/11 06:40:36;;;;;;;;;;;22.70;47.00;;;;;;4050071;29;19919;-45
2021/04/11 06:42:56;;;;;;;;;;;22.70;47.10;;;;;;4054295;29;19935;-47
2021/04/11 06:45:16;;;;;;;;;;;22.70;47.10;;;;;;4053272;29;19919;-50
2021/04/11 06:47:27;;;;;;;;;;;22.70;47.10;;;;;;4052724;29;20325;-51
2021/04/11 06:49:47;;;;;;;;;;;22.70;47.10;;;;;;4047711;29;20291;-44
2021/04/11 06:52:07;;;;;;;;;;;22.70;46.50;;;;;;4050654;29;20023;-46
2021/04/11 06:54:27;;;;;;;;;;;22.70;46.10;;;;;;4038649;29;20046;-47
2021/04/11 06:56:40;;;;;;;;;;;22.70;46.20;;;;;;4051422;29;19945;-45
2021/04/11 06:59:00;;;;;;;;;;;22.70;46.00;;;;;;4048606;29;20227;-47
2021/04/11 07:01:04;;;;;;;;;;;22.60;45.70;;;;;;4050191;29;20005;-47
2021/04/11 07:03:18;;;;;;;;;;;22.60;45.70;;;;;;4053613;29;19922;-49
2021/04/11 07:05:45;;;;;;;;;;;22.50;45.50;;;;;;4055353;29;20361;-46
2021/04/11 07:08:02;;;;;;;;;;;22.50;45.40;;;;;;4030473;29;19930;-48
2021/04/11 07:10:07;;;;;;;;;;;22.40;45.30;;;;;;4041358;29;19923;-46
2021/04/11 07:12:26;;;;;;;;;;;22.40;45.30;;;;;;4051877;29;20365;-46
2021/04/11 07:14:31;;;;;;;;;;;22.30;45.40;;;;;;4039826;29;19919;-53
2021/04/11 07:16:32;;;;;;;;;;;22.30;44.90;;;;;;4048087;28;20587;-46
2021/04/11 07:19:00;;;;;;;;;;;22.20;43.20;;;;;;4050613;28;19922;-45
2021/04/11 07:21:17;;;;;;;;;;;22.20;42.60;;;;;;4055328;29;19915;-45
2021/04/11 07:23:21;;;;;;;;;;;22.10;42.20;;;;;;4048443;29;20598;-52
2021/04/11 07:25:29;;;;;;;;;;;22.00;42.50;;;;;;4043119;29;19930;-48
2021/04/11 07:27:41;;;;;;;;;;;22.00;42.80;;;;;;4041458;29;20597;-53
2021/04/11 07:29:55;;;;;;;;;;;22.00;43.20;;;;;;4052563;29;20407;-46
2021/04/11 07:31:59;;;;;;;;;;;22.00;43.50;;;;;;4055919;29;19986;-48
2021/04/11 07:34:14;;;;;;;;;;;21.90;43.70;;;;;;4054611;29;19923;-48
2021/04/11 07:36:21;;;;;;;;;;;21.90;43.90;;;;;;4054708;29;19949;-46
2021/04/11 07:38:22;;;;;;;;;;;21.90;44.20;;;;;;4053015;29;19915;-47
2021/04/11 07:40:30;;;;;;;;;;;21.90;44.30;;;;;;4054769;29;19974;-49
2021/04/11 07:42:44;;;;;;;;;;;21.90;44.30;;;;;;4050123;29;20412;-50
2021/04/11 07:44:52;;;;;;;;;;;21.90;44.40;;;;;;4045596;29;19915;-49
2021/04/11 07:46:59;;;;;;;;;;;21.90;44.50;;;;;;4040420;29;20082;-47
2021/04/11 07:49:11;;;;;;;;;;;21.90;44.60;;;;;;4047672;29;20540;-48
2021/04/11 07:51:22;;;;;;;;;;;21.90;44.60;;;;;;4044714;29;19924;-50
2021/04/11 07:53:30;;;;;;;;;;;21.80;44.60;;;;;;4051724;29;19990;-50
2021/04/11 07:55:31;;;;;;;;;;;21.80;44.60;;;;;;4047727;28;19949;-47
2021/04/11 07:57:36;;;;;;;;;;;21.80;44.60;;;;;;4047466;29;19946;-49
2021/04/11 07:59:41;;;;;;;;;;;21.80;44.60;;;;;;4049613;29;19926;-48
2021/04/11 08:02:03;;;;;;;;;;;21.80;44.60;;;;;;4044001;29;19919;-45
2021/04/11 08:04:26;;;;;;;;;;;21.80;44.60;;;;;;4050567;29;19914;-54
2021/04/11 08:06:47;;;;;;;;;;;21.70;44.50;;;;;;4055054;29;20000;-49
2021/04/11 08:09:07;;;;;;;;;;;21.70;44.50;;;;;;4053512;29;20256;-54
2021/04/11 08:11:26;;;;;;;;;;;21.70;44.50;;;;;;4060233;29;19927;-53
2021/04/11 08:13:46;;;;;;;;;;;21.70;44.70;;;;;;4055830;29;20431;-57
2021/04/11 08:15:59;;;;;;;;;;;21.70;44.90;;;;;;4048394;29;19924;-50
2021/04/11 08:18:02;;;;;;;;;;;21.70;44.90;;;;;;4049775;29;20027;-50
2021/04/11 08:20:21;;;;;;;;;;;21.60;45.50;;;;;;4048769;29;19915;-51
2021/04/11 08:22:26;;;;;;;;;;;21.60;44.90;;;;;;4049063;28;19919;-49
2021/04/11 08:24:46;;;;;;;;;;;21.60;44.90;;;;;;4049452;29;19990;-48
2021/04/11 08:27:19;;;;;;;;;;;21.60;44.90;;;;;;4048645;29;20346;-47
2021/04/11 08:29:21;;;;;;;;;;;21.60;44.80;;;;;;4016975;29;20452;-51
2021/04/11 08:31:25;;;;;;;;;;;21.60;44.90;;;;;;4047630;29;20058;-47
2021/04/11 08:33:45;;;;;;;;;;;21.50;44.90;;;;;;4051036;29;19920;-44
2021/04/11 08:36:05;;;;;;;;;;;21.50;44.90;;;;;;4047026;29;19990;-46
2021/04/11 08:38:18;;;;;;;;;;;21.50;45.70;;;;;;4050490;29;20002;-45
2021/04/11 08:40:38;;;;;;;;;;;21.50;45.10;;;;;;4044751;29;20396;-49
2021/04/11 08:42:40;;;;;;;;;;;21.50;45.20;;;;;;4047912;29;19977;-49
2021/04/11 08:44:41;;;;;;;;;;;21.40;45.10;;;;;;4044033;29;20401;-47
2021/04/11 08:46:49;;;;;;;;;;;21.50;45.30;;;;;;4049455;29;20377;-50
2021/04/11 08:48:56;;;;;;;;;;;21.40;45.40;;;;;;4046187;29;19923;-46
2021/04/11 08:51:16;;;;;;;;;;;21.40;45.50;;;;;;4045818;29;19938;-49
2021/04/11 08:53:20;;;;;;;;;;;21.40;45.40;;;;;;4049778;29;19915;-50
2021/04/11 08:55:27;;;;;;;;;;;21.40;44.90;;;;;;4046633;29;19926;-50
2021/04/11 08:57:32;;;;;;;;;;;21.30;44.60;;;;;;4050158;29;19925;-49
2021/04/11 08:59:38;;;;;;;;;;;21.30;44.20;;;;;;4046012;29;19926;-48
2021/04/11 09:01:49;;;;;;;;;;;21.20;43.80;;;;;;4049143;29;19923;-50
2021/04/11 09:04:08;;;;;;;;;;;21.20;43.80;;;;;;4049039;29;19918;-51
2021/04/11 09:06:25;;;;;;;;;;;21.20;43.60;;;;;;4048068;29;19921;-55
2021/04/11 09:08:30;;;;;;;;;;;21.10;44.20;;;;;;4047676;29;19914;-57
2021/04/11 09:10:50;;;;;;;;;;;21.10;44.70;;;;;;4051631;29;20014;-53
2021/04/11 09:13:14;;;;;;;;;;;21.10;45.30;;;;;;4044058;29;19927;-52
2021/04/11 09:15:34;;;;;;;;;;;21.10;45.60;;;;;;4053154;29;19946;-57
2021/04/11 09:17:53;;;;;;;;;;;21.10;45.90;;;;;;4043811;29;20702;-48
2021/04/11 09:20:00;;;;;;;;;;;21.10;46.20;;;;;;4046195;29;20388;-52
2021/04/11 09:22:07;;;;;;;;;;;21.10;46.50;;;;;;4048727;29;20002;-53
2021/04/11 09:24:21;;;;;;;;;;;21.10;46.50;;;;;;4046730;29;20838;-53
2021/04/11 09:26:22;;;;;;;;;;;21.10;46.80;;;;;;4042141;29;19955;-55
2021/04/11 09:28:30;;;;;;;;;;;21.10;46.90;;;;;;4049224;29;19967;-49
2021/04/11 09:30:47;;;;;;;;;;;21.10;46.90;;;;;;4044324;29;19927;-51
2021/04/11 09:33:08;;;;;;;;;;;21.10;47.00;;;;;;4047597;29;20427;-52
2021/04/11 09:35:24;;;;;;;;;;;21.10;47.20;;;;;;4048198;29;20403;-51
2021/04/11 09:37:44;;;;;;;;;;;21.10;47.30;;;;;;4045531;29;19978;-55
2021/04/11 09:40:04;;;;;;;;;;;21.10;47.20;;;;;;4045001;29;19965;-52
2021/04/11 09:42:08;;;;;;;;;;;21.10;47.10;;;;;;4048564;28;20368;-56
2021/04/11 09:44:19;;;;;;;;;;;21.10;47.40;;;;;;4047370;29;19967;-51
2021/04/11 09:46:20;;;;;;;;;;;21.10;47.30;;;;;;4048614;29;20088;-50
2021/04/11 09:48:33;;;;;;;;;;;21.00;47.30;;;;;;4043483;29;20009;-51
2021/04/11 09:50:42;;;;;;;;;;;21.00;47.30;;;;;;4043476;29;20230;-52
2021/04/11 09:53:01;;;;;;;;;;;21.00;47.40;;;;;;4045496;29;20242;-51
2021/04/11 09:55:25;;;;;;;;;;;21.00;47.40;;;;;;4048519;29;20373;-49
2021/04/11 09:57:26;;;;;;;;;;;21.00;47.40;;;;;;4045539;29;20022;-52
2021/04/11 09:59:31;;;;;;;;;;;21.00;47.40;;;;;;4046567;29;20406;-52
2021/04/11 10:01:43;;;;;;;;;;;21.00;47.50;;;;;;4047290;29;20005;-52
2021/04/11 10:03:53;;;;;;;;;;;21.00;47.50;;;;;;4044222;29;20357;-54
2021/04/11 10:05:55;;;;;;;;;;;20.90;47.70;;;;;;4046267;29;20027;-53
2021/04/11 10:08:28;;;;;;;;;;;20.90;47.70;;;;;;4047447;29;20352;-50
2021/04/11 10:10:30;;;;;;;;;;;20.90;47.60;;;;;;4028022;29;19982;-53
2021/04/11 10:13:10;;;;;;;;;;;20.90;47.80;;;;;;4048983;29;19946;-48
2021/04/11 10:15:21;;;;;;;;;;;20.80;47.80;;;;;;4002640;29;19995;-55
2021/04/11 10:17:45;;;;;;;;;;;20.80;48.00;;;;;;4003229;29;19908;-56
2021/04/11 10:19:56;;;;;;;;;;;20.80;48.00;;;;;;4011762;29;19915;-54
2021/04/11 10:22:16;;;;;;;;;;;20.70;47.70;;;;;;4048855;29;20113;-52
2021/04/11 10:24:17;;;;;;;;;;;20.70;47.90;;;;;;4046324;29;20094;-53
2021/04/11 10:26:23;;;;;;;;;;;20.70;48.00;;;;;;4051450;29;19958;-49
2021/04/11 10:28:43;;;;;;;;;;;20.70;48.20;;;;;;4046024;29;19970;-53
2021/04/11 10:30:47;;;;;;;;;;;20.60;48.20;;;;;;4043307;28;19927;-53
2021/04/11 10:33:08;;;;;;;;;;;20.60;48.60;;;;;;4048628;29;20393;-56
2021/04/11 10:35:22;;;;;;;;;;;20.60;48.20;;;;;;4043871;29;19923;-50
2021/04/11 10:37:31;;;;;;;;;;;20.60;48.40;;;;;;4049241;29;19926;-55
2021/04/11 10:40:08;;;;;;;;;;;20.60;48.50;;;;;;4049224;28;20238;-55
2021/04/11 10:42:09;;;;;;;;;;;20.50;48.20;;;;;;4015234;29;21031;-54
2021/04/11 10:44:19;;;;;;;;;;;20.50;48.40;;;;;;4035572;29;20014;-53
2021/04/11 10:46:26;;;;;;;;;;;20.50;48.20;;;;;;4046131;29;19927;-56
2021/04/11 10:48:27;;;;;;;;;;;20.40;48.30;;;;;;4043753;28;19930;-57
2021/04/11 10:50:34;;;;;;;;;;;20.50;48.30;;;;;;4050675;29;19945;-53
2021/04/11 10:52:48;;;;;;;;;;;20.40;48.30;;;;;;4046695;29;19918;-53
2021/04/11 10:54:49;;;;;;;;;;;20.40;48.30;;;;;;4048274;29;19923;-54
2021/04/11 10:57:00;;;;;;;;;;;20.40;48.30;;;;;;4042939;29;19937;-52
2021/04/11 10:59:01;;;;;;;;;;;20.40;48.30;;;;;;4045374;29;19926;-51
2021/04/11 11:01:10;;;;;;;;;;;20.40;48.40;;;;;;4052952;29;20162;-56
2021/04/11 11:03:11;;;;;;;;;;;20.40;48.40;;;;;;4047308;29;19970;-55
2021/04/11 11:05:35;;;;;;;;;;;20.30;48.50;;;;;;4048265;29;19916;-56
2021/04/11 11:07:39;;;;;;;;;;;20.30;48.60;;;;;;4048448;29;20045;-55
2021/04/11 11:09:44;;;;;;;;;;;20.30;48.60;;;;;;4046096;29;20320;-52
2021/04/11 11:12:03;;;;;;;;;;;20.30;48.60;;;;;;4053634;29;19929;-50
2021/04/11 11:14:17;;;;;;;;;;;20.30;48.70;;;;;;4049593;29;19945;-55
2021/04/11 11:16:25;;;;;;;;;;;20.30;48.70;;;;;;4047412;29;20376;-52
2021/04/11 11:18:33;;;;;;;;;;;20.30;48.70;;;;;;4049777;29;19975;-50
2021/04/11 11:20:45;;;;;;;;;;;20.30;49.30;;;;;;4048371;29;19926;-54
2021/04/11 11:22:55;;;;;;;;;;;20.20;48.70;;;;;;4050648;29;19936;-52
2021/04/11 11:24:57;;;;;;;;;;;20.20;48.90;;;;;;4049490;29;19955;-54
2021/04/11 11:26:58;;;;;;;;;;;20.20;49.10;;;;;;4048775;29;20334;-52
2021/04/11 11:29:15;;;;;;;;;;;20.20;49.10;;;;;;4048721;29;20009;-48
2021/04/11 11:31:19;;;;;;;;;;;20.20;49.20;;;;;;4045127;29;20491;-50
2021/04/11 11:33:39;;;;;;;;;;;20.20;49.20;;;;;;4048129;29;20248;-53
2021/04/11 11:35:59;;;;;;;;;;;20.20;49.20;;;;;;4052968;29;20249;-51
2021/04/11 11:38:09;;;;;;;;;;;20.20;49.10;;;;;;4047037;29;20018;-49
2021/04/11 11:40:14;;;;;;;;;;;20.20;49.10;;;;;;4053387;28;19918;-50
2021/04/11 11:42:28;;;;;;;;;;;20.20;49.10;;;;;;4051524;29;20234;-51
2021/04/11 11:44:33;;;;;;;;;;;20.20;49.20;;;;;;4046516;29;19966;-55
2021/04/11 11:46:37;;;;;;;;;;;20.20;49.60;;;;;;4046933;29;20035;-53
2021/04/11 11:48:58;;;;;;;;;;;20.20;49.30;;;;;;4045806;29;19930;-49
2021/04/11 11:51:06;;;;;;;;;;;20.10;49.10;;;;;;4047578;29;19920;-51
2021/04/11 11:53:11;;;;;;;;;;;20.10;49.20;;;;;;4051359;29;19933;-55
2021/04/11 11:55:47;;;;;;;;;;;20.10;49.20;;;;;;4048402;29;19931;-54
2021/04/11 11:57:58;;;;;;;;;;;20.10;49.10;;;;;;4046225;29;20400;-55
2021/04/11 12:00:06;;;;;;;;;;;20.10;49.10;;;;;;4047071;29;19990;-53
2021/04/11 12:02:13;;;;;;;;;;;20.00;49.00;;;;;;4045842;29;19906;-55
2021/04/11 12:04:17;;;;;;;;;;;20.00;49.10;;;;;;4047966;29;19925;-54
2021/04/11 12:06:32;;;;;;;;;;;20.00;49.10;;;;;;4050252;28;19926;-52
2021/04/11 12:08:37;;;;;;;;;;;20.00;49.10;;;;;;4049184;29;19915;-55
2021/04/11 12:10:41;;;;;;;;;;;20.00;49.10;;;;;;4050258;29;20039;-54
2021/04/11 12:12:50;;;;;;;;;;;19.90;49.10;;;;;;4050357;29;19919;-54
2021/04/11 12:15:02;;;;;;;;;;;19.90;49.20;;;;;;4045265;28;20141;-57
2021/04/11 12:17:07;;;;;;;;;;;19.90;49.30;;;;;;4058744;29;19918;-58
2021/04/11 12:19:08;;;;;;;;;;;19.90;49.60;;;;;;4060476;29;19919;-66
2021/04/11 12:21:36;;;;;;;;;;;19.90;49.70;;;;;;4057494;29;19930;-59
2021/04/11 12:24:06;;;;;;;;;;;19.90;49.60;;;;;;4041034;29;19926;-59
2021/04/11 12:26:12;;;;;;;;;;;19.90;49.60;;;;;;4044089;29;20092;-59